sensor_id;sensor_type;location;lat;lon;timestamp;pressure;altitude;pressure_sealevel;temperature;humidity
74708;BME280;63360;50.104;8.074;2023-03-14T00:01:24;95251.91;;;8.50;100.00
74708;BME280;63360;50.104;8.074;2023-03-14T00:03:51;95260.28;;;8.44;100.00
74708;BME280;63360;50.104;8.074;2023-03-14T00:06:17;95268.97;;;8.51;100.00
74708;BME280;63360;50.104;8.074;2023-03-14T00:08:44;95280.50;;;8.54;100.00
74708;BME280;63360;50.104;8.074;2023-03-14T00:11:17;95268.88;;;8.48;100.00
74708;BME280;63360;50.104;8.074;2023-03-14T00:13:47;95254.00;;;8.45;100.00
74708;BME280;63360;50.104;8.074;2023-03-14T00:16:16;95264.78;;;8.47;100.00
74708;BME280;63360;50.104;8.074;2023-03-14T00:18:43;95283.09;;;8.54;100.00
74708;BME280;63360;50.104;8.074;2023-03-14T00:21:10;95272.16;;;8.45;100.00
74708;BME280;63360;50.104;8.074;2023-03-14T00:23:39;95284.84;;;8.50;100.00
74708;BME280;63360;50.104;8.074;2023-03-14T00:26:11;95273.22;;;8.44;100.00
74708;BME280;63360;50.104;8.074;2023-03-14T00:28:40;95272.97;;;8.49;100.00
74708;BME280;63360;50.104;8.074;2023-03-14T00:31:09;95258.53;;;8.48;100.00
74708;BME280;63360;50.104;8.074;2023-03-14T00:33:35;95260.44;;;8.51;100.00
74708;BME280;63360;50.104;8.074;2023-03-14T00:36:04;95251.41;;;8.45;100.00
74708;BME280;63360;50.104;8.074;2023-03-14T00:38:32;95234.09;;;8.49;100.00
74708;BME280;63360;50.104;8.074;2023-03-14T00:41:01;95227.53;;;8.51;100.00
74708;BME280;63360;50.104;8.074;2023-03-14T00:43:28;95222.75;;;8.53;100.00
74708;BME280;63360;50.104;8.074;2023-03-14T00:45:55;95224.00;;;8.44;100.00
74708;BME280;63360;50.104;8.074;2023-03-14T00:48:21;95208.13;;;8.45;100.00
74708;BME280;63360;50.104;8.074;2023-03-14T00:50:47;95195.50;;;8.44;100.00
74708;BME280;63360;50.104;8.074;2023-03-14T00:53:15;95199.25;;;8.46;100.00
74708;BME280;63360;50.104;8.074;2023-03-14T00:55:42;95217.47;;;8.50;100.00
74708;BME280;63360;50.104;8.074;2023-03-14T00:58:10;95209.81;;;8.38;100.00
74708;BME280;63360;50.104;8.074;2023-03-14T01:00:37;95230.09;;;8.51;100.00
74708;BME280;63360;50.104;8.074;2023-03-14T01:03:05;95213.91;;;8.39;100.00
74708;BME280;63360;50.104;8.074;2023-03-14T01:05:31;95227.44;;;8.48;100.00
74708;BME280;63360;50.104;8.074;2023-03-14T01:07:58;95220.69;;;8.43;100.00
74708;BME280;63360;50.104;8.074;2023-03-14T01:10:24;95209.88;;;8.41;100.00
74708;BME280;63360;50.104;8.074;2023-03-14T01:12:51;95208.06;;;8.42;100.00
74708;BME280;63360;50.104;8.074;2023-03-14T01:17:46;95203.53;;;8.39;100.00
74708;BME280;63360;50.104;8.074;2023-03-14T01:20:14;95204.16;;;8.32;100.00
74708;BME280;63360;50.104;8.074;2023-03-14T01:22:41;95201.78;;;8.43;100.00
74708;BME280;63360;50.104;8.074;2023-03-14T01:25:11;95197.88;;;8.33;100.00
74708;BME280;63360;50.104;8.074;2023-03-14T01:27:37;95208.97;;;8.34;100.00
74708;BME280;63360;50.104;8.074;2023-03-14T01:30:05;95192.69;;;8.33;100.00
74708;BME280;63360;50.104;8.074;2023-03-14T01:32:31;95201.63;;;8.36;100.00
74708;BME280;63360;50.104;8.074;2023-03-14T01:34:57;95212.75;;;8.36;100.00
74708;BME280;63360;50.104;8.074;2023-03-14T01:37:24;95191.97;;;8.33;100.00
74708;BME280;63360;50.104;8.074;2023-03-14T01:39:50;95187.84;;;8.32;100.00
74708;BME280;63360;50.104;8.074;2023-03-14T01:42:17;95177.81;;;8.30;100.00
74708;BME280;63360;50.104;8.074;2023-03-14T01:44:48;95167.19;;;8.20;100.00
74708;BME280;63360;50.104;8.074;2023-03-14T01:47:15;95177.81;;;8.30;100.00
74708;BME280;63360;50.104;8.074;2023-03-14T01:49:41;95173.34;;;8.27;100.00
74708;BME280;63360;50.104;8.074;2023-03-14T01:52:13;95160.19;;;8.20;100.00
74708;BME280;63360;50.104;8.074;2023-03-14T01:54:48;95157.84;;;8.15;100.00
74708;BME280;63360;50.104;8.074;2023-03-14T01:57:35;95151.19;;;8.14;100.00
74708;BME280;63360;50.104;8.074;2023-03-14T02:00:12;95134.06;;;8.10;100.00
74708;BME280;63360;50.104;8.074;2023-03-14T02:02:43;95149.50;;;8.22;100.00
74708;BME280;63360;50.104;8.074;2023-03-14T02:05:12;95133.22;;;8.21;100.00
74708;BME280;63360;50.104;8.074;2023-03-14T02:07:48;95123.78;;;8.13;100.00
74708;BME280;63360;50.104;8.074;2023-03-14T02:10:17;95115.63;;;8.11;100.00
74708;BME280;63360;50.104;8.074;2023-03-14T02:12:48;95103.41;;;8.12;100.00
74708;BME280;63360;50.104;8.074;2023-03-14T02:15:15;95106.47;;;8.17;100.00
74708;BME280;63360;50.104;8.074;2023-03-14T02:17:42;95102.41;;;8.16;100.00
74708;BME280;63360;50.104;8.074;2023-03-14T02:22:58;95089.22;;;8.06;100.00
74708;BME280;63360;50.104;8.074;2023-03-14T02:28:04;95084.31;;;8.01;100.00
74708;BME280;63360;50.104;8.074;2023-03-14T02:30:31;95089.72;;;8.11;100.00
74708;BME280;63360;50.104;8.074;2023-03-14T02:33:07;95088.88;;;8.07;100.00
74708;BME280;63360;50.104;8.074;2023-03-14T02:35:40;95095.97;;;8.10;100.00
74708;BME280;63360;50.104;8.074;2023-03-14T02:38:15;95080.72;;;8.05;100.00
74708;BME280;63360;50.104;8.074;2023-03-14T02:40:43;95086.25;;;8.04;100.00
74708;BME280;63360;50.104;8.074;2023-03-14T02:43:10;95112.53;;;8.06;100.00
74708;BME280;63360;50.104;8.074;2023-03-14T02:45:41;95126.25;;;8.06;100.00
74708;BME280;63360;50.104;8.074;2023-03-14T02:48:13;95107.41;;;8.09;100.00
74708;BME280;63360;50.104;8.074;2023-03-14T02:50:41;95101.06;;;8.07;100.00
74708;BME280;63360;50.104;8.074;2023-03-14T02:53:07;95111.03;;;8.05;100.00
74708;BME280;63360;50.104;8.074;2023-03-14T02:55:34;95112.53;;;8.06;100.00
74708;BME280;63360;50.104;8.074;2023-03-14T02:58:00;95100.34;;;8.06;100.00
74708;BME280;63360;50.104;8.074;2023-03-14T03:00:27;95100.59;;;8.01;100.00
74708;BME280;63360;50.104;8.074;2023-03-14T03:02:53;95112.53;;;8.06;100.00
74708;BME280;63360;50.104;8.074;2023-03-14T03:05:20;95111.38;;;8.03;100.00
74708;BME280;63360;50.104;8.074;2023-03-14T03:07:46;95101.13;;;7.91;100.00
74708;BME280;63360;50.104;8.074;2023-03-14T03:10:12;95119.22;;;7.91;100.00
74708;BME280;63360;50.104;8.074;2023-03-14T03:12:39;95106.16;;;7.84;100.00
74708;BME280;63360;50.104;8.074;2023-03-14T03:15:06;95111.88;;;7.93;100.00
74708;BME280;63360;50.104;8.074;2023-03-14T03:17:32;95117.63;;;8.02;100.00
74708;BME280;63360;50.104;8.074;2023-03-14T03:19:59;95116.19;;;8.05;100.00
74708;BME280;63360;50.104;8.074;2023-03-14T03:22:25;95092.16;;;8.04;100.00
74708;BME280;63360;50.104;8.074;2023-03-14T03:24:51;95109.69;;;8.11;100.00
74708;BME280;63360;50.104;8.074;2023-03-14T03:27:18;95090.97;;;8.02;100.00
74708;BME280;63360;50.104;8.074;2023-03-14T03:29:44;95081.88;;;8.08;100.00
74708;BME280;63360;50.104;8.074;2023-03-14T03:32:11;95082.28;;;8.10;100.00
74708;BME280;63360;50.104;8.074;2023-03-14T03:34:37;95081.47;;;8.06;100.00
74708;BME280;63360;50.104;8.074;2023-03-14T03:37:03;95077.56;;;7.96;100.00
74708;BME280;63360;50.104;8.074;2023-03-14T03:39:30;95082.53;;;8.05;100.00
74708;BME280;63360;50.104;8.074;2023-03-14T03:41:56;95086.38;;;8.11;100.00
74708;BME280;63360;50.104;8.074;2023-03-14T03:44:22;95075.00;;;8.15;100.00
74708;BME280;63360;50.104;8.074;2023-03-14T03:46:49;95050.53;;;8.13;100.00
74708;BME280;63360;50.104;8.074;2023-03-14T03:49:15;95061.38;;;8.18;100.00
74708;BME280;63360;50.104;8.074;2023-03-14T03:51:42;95056.94;;;8.19;100.00
74708;BME280;63360;50.104;8.074;2023-03-14T03:54:08;95036.44;;;8.10;100.00
74708;BME280;63360;50.104;8.074;2023-03-14T03:56:34;95044.69;;;8.16;100.00
74708;BME280;63360;50.104;8.074;2023-03-14T03:59:01;95045.03;;;8.14;100.00
74708;BME280;63360;50.104;8.074;2023-03-14T04:01:27;95043.13;;;8.11;100.00
74708;BME280;63360;50.104;8.074;2023-03-14T04:03:54;95031.06;;;8.19;100.00
74708;BME280;63360;50.104;8.074;2023-03-14T04:06:20;95011.69;;;8.13;100.00
74708;BME280;63360;50.104;8.074;2023-03-14T04:08:47;95032.63;;;8.23;100.00
74708;BME280;63360;50.104;8.074;2023-03-14T04:11:13;95028.88;;;8.21;100.00
74708;BME280;63360;50.104;8.074;2023-03-14T04:13:42;95023.34;;;8.22;100.00
74708;BME280;63360;50.104;8.074;2023-03-14T04:16:15;95019.84;;;8.15;100.00
74708;BME280;63360;50.104;8.074;2023-03-14T04:18:42;95037.59;;;8.13;100.00
74708;BME280;63360;50.104;8.074;2023-03-14T04:21:09;95035.47;;;8.18;100.00
74708;BME280;63360;50.104;8.074;2023-03-14T04:23:35;95021.28;;;8.12;99.26
74708;BME280;63360;50.104;8.074;2023-03-14T04:26:02;95012.72;;;8.08;99.57
74708;BME280;63360;50.104;8.074;2023-03-14T04:28:29;95020.63;;;8.15;99.31
74708;BME280;63360;50.104;8.074;2023-03-14T04:30:55;95017.69;;;8.17;98.82
74708;BME280;63360;50.104;8.074;2023-03-14T04:33:22;95022.88;;;8.17;99.07
74708;BME280;63360;50.104;8.074;2023-03-14T04:35:48;95007.94;;;8.10;98.99
74708;BME280;63360;50.104;8.074;2023-03-14T04:38:16;95022.44;;;8.15;100.00
74708;BME280;63360;50.104;8.074;2023-03-14T04:40:43;95001.06;;;8.18;99.96
74708;BME280;63360;50.104;8.074;2023-03-14T04:43:11;95009.94;;;8.17;100.00
74708;BME280;63360;50.104;8.074;2023-03-14T04:45:41;95007.25;;;8.13;100.00
74708;BME280;63360;50.104;8.074;2023-03-14T04:48:08;94996.78;;;8.06;100.00
74708;BME280;63360;50.104;8.074;2023-03-14T04:50:34;94986.00;;;8.04;100.00
74708;BME280;63360;50.104;8.074;2023-03-14T04:53:00;94971.69;;;8.10;100.00
74708;BME280;63360;50.104;8.074;2023-03-14T04:55:27;94986.75;;;8.05;100.00
74708;BME280;63360;50.104;8.074;2023-03-14T04:57:53;95009.78;;;8.10;100.00
74708;BME280;63360;50.104;8.074;2023-03-14T05:00:20;94991.31;;;8.11;100.00
74708;BME280;63360;50.104;8.074;2023-03-14T05:02:46;94988.94;;;8.03;100.00
74708;BME280;63360;50.104;8.074;2023-03-14T05:05:12;94981.50;;;8.01;100.00
74708;BME280;63360;50.104;8.074;2023-03-14T05:07:39;94994.88;;;8.03;100.00
74708;BME280;63360;50.104;8.074;2023-03-14T05:10:05;94999.03;;;8.08;100.00
74708;BME280;63360;50.104;8.074;2023-03-14T05:12:32;94993.44;;;8.06;100.00
74708;BME280;63360;50.104;8.074;2023-03-14T05:14:58;94986.75;;;8.05;100.00
74708;BME280;63360;50.104;8.074;2023-03-14T05:17:24;94995.06;;;7.94;100.00
74708;BME280;63360;50.104;8.074;2023-03-14T05:19:51;94996.28;;;7.81;100.00
74708;BME280;63360;50.104;8.074;2023-03-14T05:22:17;94993.81;;;7.88;100.00
74708;BME280;63360;50.104;8.074;2023-03-14T05:24:44;95001.75;;;7.96;100.00
74708;BME280;63360;50.104;8.074;2023-03-14T05:27:10;95003.91;;;7.93;100.00
74708;BME280;63360;50.104;8.074;2023-03-14T05:29:36;95004.78;;;8.01;100.00
74708;BME280;63360;50.104;8.074;2023-03-14T05:32:03;95004.88;;;8.05;100.00
74708;BME280;63360;50.104;8.074;2023-03-14T05:34:29;94999.03;;;8.08;100.00
74708;BME280;63360;50.104;8.074;2023-03-14T05:36:56;94987.91;;;8.07;100.00
74708;BME280;63360;50.104;8.074;2023-03-14T05:39:23;94991.84;;;8.01;100.00
74708;BME280;63360;50.104;8.074;2023-03-14T05:41:49;94966.31;;;8.00;100.00
74708;BME280;63360;50.104;8.074;2023-03-14T05:44:17;94962.78;;;8.08;99.71
74708;BME280;63360;50.104;8.074;2023-03-14T05:46:44;94956.25;;;7.94;100.00
74708;BME280;63360;50.104;8.074;2023-03-14T05:49:10;94971.50;;;8.00;100.00
74708;BME280;63360;50.104;8.074;2023-03-14T05:51:36;94970.25;;;7.93;100.00
74708;BME280;63360;50.104;8.074;2023-03-14T05:54:03;94983.28;;;7.97;100.00
74708;BME280;63360;50.104;8.074;2023-03-14T05:56:29;94968.97;;;7.84;100.00
74708;BME280;63360;50.104;8.074;2023-03-14T05:58:56;94970.69;;;7.96;100.00
74708;BME280;63360;50.104;8.074;2023-03-14T06:01:22;94969.97;;;7.99;98.80
74708;BME280;63360;50.104;8.074;2023-03-14T06:03:48;94950.56;;;7.89;98.70
74708;BME280;63360;50.104;8.074;2023-03-14T06:06:15;94954.06;;;7.97;98.22
74708;BME280;63360;50.104;8.074;2023-03-14T06:08:42;94945.06;;;7.90;99.32
74708;BME280;63360;50.104;8.074;2023-03-14T06:11:09;94947.13;;;8.01;97.08
74708;BME280;63360;50.104;8.074;2023-03-14T06:13:35;94954.44;;;7.99;97.12
74708;BME280;63360;50.104;8.074;2023-03-14T06:16:02;94947.44;;;7.99;97.51
74708;BME280;63360;50.104;8.074;2023-03-14T06:18:28;94938.03;;;7.91;97.98
74708;BME280;63360;50.104;8.074;2023-03-14T06:20:55;94939.63;;;7.96;97.73
74708;BME280;63360;50.104;8.074;2023-03-14T06:23:22;94947.13;;;8.01;98.35
74708;BME280;63360;50.104;8.074;2023-03-14T06:25:49;94946.84;;;8.06;97.61
74708;BME280;63360;50.104;8.074;2023-03-14T06:28:15;94941.31;;;8.07;97.54
74708;BME280;63360;50.104;8.074;2023-03-14T06:30:42;94945.69;;;8.03;97.21
74708;BME280;63360;50.104;8.074;2023-03-14T06:33:08;94957.53;;;8.04;99.38
74708;BME280;63360;50.104;8.074;2023-03-14T06:35:34;94955.69;;;8.05;100.00
74708;BME280;63360;50.104;8.074;2023-03-14T06:38:01;94965.44;;;8.11;100.00
74708;BME280;63360;50.104;8.074;2023-03-14T06:40:27;94952.06;;;8.09;99.22
74708;BME280;63360;50.104;8.074;2023-03-14T06:42:54;94969.50;;;8.12;100.00
74708;BME280;63360;50.104;8.074;2023-03-14T06:45:20;94954.41;;;8.14;99.43
74708;BME280;63360;50.104;8.074;2023-03-14T06:47:46;94949.94;;;8.15;98.90
74708;BME280;63360;50.104;8.074;2023-03-14T06:50:13;94960.38;;;8.18;99.52
74708;BME280;63360;50.104;8.074;2023-03-14T06:52:39;94953.66;;;8.14;99.28
74708;BME280;63360;50.104;8.074;2023-03-14T06:55:12;94941.44;;;8.14;98.48
74708;BME280;63360;50.104;8.074;2023-03-14T06:57:38;94942.53;;;8.13;99.37
74708;BME280;63360;50.104;8.074;2023-03-14T07:00:05;94944.09;;;8.18;99.77
74708;BME280;63360;50.104;8.074;2023-03-14T07:02:32;94942.66;;;8.20;100.00
74708;BME280;63360;50.104;8.074;2023-03-14T07:05:08;94941.91;;;8.20;99.45
74708;BME280;63360;50.104;8.074;2023-03-14T07:07:36;94947.53;;;8.25;99.30
74708;BME280;63360;50.104;8.074;2023-03-14T07:10:03;94941.72;;;8.28;99.17
74708;BME280;63360;50.104;8.074;2023-03-14T07:12:29;94938.97;;;8.21;98.98
74708;BME280;63360;50.104;8.074;2023-03-14T07:14:55;94932.09;;;8.29;97.07
74708;BME280;63360;50.104;8.074;2023-03-14T07:17:28;94937.75;;;8.34;98.45
74708;BME280;63360;50.104;8.074;2023-03-14T07:19:54;94952.53;;;8.34;98.27
74708;BME280;63360;50.104;8.074;2023-03-14T07:22:21;94945.53;;;8.34;97.48
74708;BME280;63360;50.104;8.074;2023-03-14T07:24:47;94937.16;;;8.22;99.61
74708;BME280;63360;50.104;8.074;2023-03-14T07:27:13;94937.69;;;8.31;99.58
74708;BME280;63360;50.104;8.074;2023-03-14T07:29:40;94938.50;;;8.16;100.00
74708;BME280;63360;50.104;8.074;2023-03-14T07:32:06;94943.13;;;8.26;99.88
74708;BME280;63360;50.104;8.074;2023-03-14T07:34:34;94945.88;;;8.33;98.14
74708;BME280;63360;50.104;8.074;2023-03-14T07:37:00;94951.78;;;8.33;98.35
74708;BME280;63360;50.104;8.074;2023-03-14T07:39:26;94943.63;;;8.31;98.28
74708;BME280;63360;50.104;8.074;2023-03-14T07:41:53;94944.38;;;8.32;99.18
74708;BME280;63360;50.104;8.074;2023-03-14T07:44:19;94944.03;;;8.33;98.19
74708;BME280;63360;50.104;8.074;2023-03-14T07:46:46;94956.84;;;8.45;98.65
74708;BME280;63360;50.104;8.074;2023-03-14T07:49:12;94959.41;;;8.45;99.40
74708;BME280;63360;50.104;8.074;2023-03-14T07:51:38;94966.50;;;8.48;98.51
74708;BME280;63360;50.104;8.074;2023-03-14T07:54:05;94964.38;;;8.54;98.20
74708;BME280;63360;50.104;8.074;2023-03-14T07:56:31;94969.28;;;8.59;98.28
74708;BME280;63360;50.104;8.074;2023-03-14T07:58:58;94966.13;;;8.69;97.58
74708;BME280;63360;50.104;8.074;2023-03-14T08:01:24;94958.34;;;8.69;98.10
74708;BME280;63360;50.104;8.074;2023-03-14T08:03:51;94965.47;;;8.76;97.24
74708;BME280;63360;50.104;8.074;2023-03-14T08:06:17;94960.13;;;8.88;96.33
74708;BME280;63360;50.104;8.074;2023-03-14T08:08:43;94965.31;;;8.88;96.75
74708;BME280;63360;50.104;8.074;2023-03-14T08:11:10;94966.16;;;8.95;96.12
74708;BME280;63360;50.104;8.074;2023-03-14T08:13:37;94963.94;;;8.94;95.98
74708;BME280;63360;50.104;8.074;2023-03-14T08:16:04;94959.44;;;8.91;95.91
74708;BME280;63360;50.104;8.074;2023-03-14T08:18:30;94960.91;;;8.92;95.02
74708;BME280;63360;50.104;8.074;2023-03-14T08:20:57;94967.78;;;9.03;95.70
74708;BME280;63360;50.104;8.074;2023-03-14T08:23:24;94955.56;;;9.04;94.33
74708;BME280;63360;50.104;8.074;2023-03-14T08:25:51;94957.75;;;9.02;94.86
74708;BME280;63360;50.104;8.074;2023-03-14T08:28:18;94954.81;;;9.03;94.79
74708;BME280;63360;50.104;8.074;2023-03-14T08:30:44;94944.88;;;9.09;94.85
74708;BME280;63360;50.104;8.074;2023-03-14T08:33:13;94955.94;;;9.06;95.81
74708;BME280;63360;50.104;8.074;2023-03-14T08:35:39;94963.09;;;9.12;93.83
74708;BME280;63360;50.104;8.074;2023-03-14T08:38:05;94968.16;;;9.05;94.52
74708;BME280;63360;50.104;8.074;2023-03-14T08:40:32;94967.72;;;9.00;94.40
74708;BME280;63360;50.104;8.074;2023-03-14T08:42:58;94963.28;;;9.00;94.99
74708;BME280;63360;50.104;8.074;2023-03-14T08:45:25;94957.63;;;8.95;96.64
74708;BME280;63360;50.104;8.074;2023-03-14T08:47:51;94973.31;;;9.02;96.15
74708;BME280;63360;50.104;8.074;2023-03-14T08:50:17;94960.22;;;8.95;95.67
74708;BME280;63360;50.104;8.074;2023-03-14T08:52:44;94961.72;;;8.96;97.24
74708;BME280;63360;50.104;8.074;2023-03-14T08:55:11;94970.59;;;8.95;97.45
74708;BME280;63360;50.104;8.074;2023-03-14T08:57:37;94966.69;;;8.82;96.31
74708;BME280;63360;50.104;8.074;2023-03-14T09:00:05;94967.44;;;8.82;97.41
74708;BME280;63360;50.104;8.074;2023-03-14T09:02:37;94964.94;;;8.89;96.61
74708;BME280;63360;50.104;8.074;2023-03-14T09:05:04;94969.91;;;8.98;98.05
74708;BME280;63360;50.104;8.074;2023-03-14T09:07:31;94978.59;;;9.09;95.88
74708;BME280;63360;50.104;8.074;2023-03-14T09:09:57;94986.44;;;9.12;96.12
74708;BME280;63360;50.104;8.074;2023-03-14T09:12:24;94976.09;;;9.16;96.29
74708;BME280;63360;50.104;8.074;2023-03-14T09:14:50;94979.50;;;9.20;95.70
74708;BME280;63360;50.104;8.074;2023-03-14T09:17:16;94978.16;;;9.30;95.83
74708;BME280;63360;50.104;8.074;2023-03-14T09:19:43;94981.56;;;9.34;95.16
74708;BME280;63360;50.104;8.074;2023-03-14T09:22:09;94983.66;;;9.25;96.76
74708;BME280;63360;50.104;8.074;2023-03-14T09:24:35;94991.19;;;9.33;96.38
74708;BME280;63360;50.104;8.074;2023-03-14T09:27:02;94998.97;;;9.33;95.91
74708;BME280;63360;50.104;8.074;2023-03-14T09:29:28;94991.78;;;9.23;96.43
74708;BME280;63360;50.104;8.074;2023-03-14T09:31:55;94986.69;;;9.30;95.62
74708;BME280;63360;50.104;8.074;2023-03-14T09:34:24;94995.28;;;9.34;95.71
74708;BME280;63360;50.104;8.074;2023-03-14T09:36:50;94987.78;;;9.29;94.74
74708;BME280;63360;50.104;8.074;2023-03-14T09:39:16;94995.31;;;9.38;95.06
74708;BME280;63360;50.104;8.074;2023-03-14T09:41:46;94996.78;;;9.35;95.14
74708;BME280;63360;50.104;8.074;2023-03-14T09:44:19;95005.38;;;9.39;95.33
74708;BME280;63360;50.104;8.074;2023-03-14T09:46:50;95001.66;;;9.40;95.88
74708;BME280;63360;50.104;8.074;2023-03-14T09:49:22;95010.19;;;9.41;95.00
74708;BME280;63360;50.104;8.074;2023-03-14T09:51:52;94992.25;;;9.29;96.07
74708;BME280;63360;50.104;8.074;2023-03-14T09:54:47;94991.59;;;9.35;94.98
74708;BME280;63360;50.104;8.074;2023-03-14T09:57:17;94984.88;;;9.34;94.33
74708;BME280;63360;50.104;8.074;2023-03-14T09:59:46;94986.03;;;9.37;95.65
74708;BME280;63360;50.104;8.074;2023-03-14T10:02:19;94980.00;;;9.29;96.11
74708;BME280;63360;50.104;8.074;2023-03-14T10:04:47;94986.84;;;9.41;94.73
74708;BME280;63360;50.104;8.074;2023-03-14T10:07:19;94985.03;;;9.45;95.28
74708;BME280;63360;50.104;8.074;2023-03-14T10:09:48;94986.59;;;9.49;96.22
74708;BME280;63360;50.104;8.074;2023-03-14T10:12:17;94978.69;;;9.39;97.41
74708;BME280;63360;50.104;8.074;2023-03-14T10:14:49;94978.22;;;9.33;98.68
74708;BME280;63360;50.104;8.074;2023-03-14T10:17:18;94980.84;;;9.37;97.46
74708;BME280;63360;50.104;8.074;2023-03-14T10:19:55;94977.47;;;9.33;97.53
74708;BME280;63360;50.104;8.074;2023-03-14T10:22:29;94982.28;;;9.34;99.70
74708;BME280;63360;50.104;8.074;2023-03-14T10:25:00;94995.72;;;9.40;98.54
74708;BME280;63360;50.104;8.074;2023-03-14T10:27:33;94980.44;;;9.31;99.81
74708;BME280;63360;50.104;8.074;2023-03-14T10:30:02;94991.94;;;9.34;100.00
74708;BME280;63360;50.104;8.074;2023-03-14T10:32:34;94997.84;;;9.31;100.00
74708;BME280;63360;50.104;8.074;2023-03-14T10:37:58;95003.19;;;9.19;100.00
74708;BME280;63360;50.104;8.074;2023-03-14T10:40:40;94997.31;;;9.22;100.00
74708;BME280;63360;50.104;8.074;2023-03-14T10:43:13;95009.19;;;9.23;100.00
74708;BME280;63360;50.104;8.074;2023-03-14T10:45:42;95003.50;;;9.13;100.00
74708;BME280;63360;50.104;8.074;2023-03-14T10:48:22;95006.84;;;9.14;100.00
74708;BME280;63360;50.104;8.074;2023-03-14T10:51:29;95016.13;;;9.15;100.00
74708;BME280;63360;50.104;8.074;2023-03-14T10:53:58;95001.88;;;9.05;100.00
74708;BME280;63360;50.104;8.074;2023-03-14T10:56:27;94997.09;;;9.07;100.00
74708;BME280;63360;50.104;8.074;2023-03-14T10:58:59;95004.31;;;9.18;100.00
74708;BME280;63360;50.104;8.074;2023-03-14T11:05:03;95008.44;;;9.22;100.00
74708;BME280;63360;50.104;8.074;2023-03-14T11:07:40;95008.50;;;9.26;100.00
74708;BME280;63360;50.104;8.074;2023-03-14T11:10:32;95016.84;;;9.38;100.00
74708;BME280;63360;50.104;8.074;2023-03-14T11:13:32;95025.47;;;9.46;100.00
74708;BME280;63360;50.104;8.074;2023-03-14T11:16:14;95019.97;;;9.51;100.00
74708;BME280;63360;50.104;8.074;2023-03-14T11:21:30;95021.50;;;9.52;100.00
74708;BME280;63360;50.104;8.074;2023-03-14T11:24:33;95031.19;;;9.55;100.00
74708;BME280;63360;50.104;8.074;2023-03-14T11:27:22;95041.13;;;9.53;100.00
74708;BME280;63360;50.104;8.074;2023-03-14T11:29:55;95046.59;;;9.44;100.00
74708;BME280;63360;50.104;8.074;2023-03-14T11:32:36;95049.06;;;9.37;100.00
74708;BME280;63360;50.104;8.074;2023-03-14T11:35:28;95070.34;;;9.24;100.00
74708;BME280;63360;50.104;8.074;2023-03-14T11:38:28;95117.22;;;9.11;100.00
74708;BME280;63360;50.104;8.074;2023-03-14T11:40:58;95164.09;;;8.84;100.00
74708;BME280;63360;50.104;8.074;2023-03-14T11:43:32;95170.09;;;8.49;100.00
74708;BME280;63360;50.104;8.074;2023-03-14T11:46:05;95184.78;;;8.11;100.00
74708;BME280;63360;50.104;8.074;2023-03-14T11:48:41;95188.38;;;7.75;100.00
74708;BME280;63360;50.104;8.074;2023-03-14T11:51:22;95194.38;;;7.48;100.00
74708;BME280;63360;50.104;8.074;2023-03-14T11:54:00;95171.91;;;7.36;100.00
74708;BME280;63360;50.104;8.074;2023-03-14T11:56:38;95198.97;;;7.54;100.00
74708;BME280;63360;50.104;8.074;2023-03-14T11:59:14;95201.63;;;7.42;100.00
74708;BME280;63360;50.104;8.074;2023-03-14T12:01:52;95203.72;;;7.52;100.00
74708;BME280;63360;50.104;8.074;2023-03-14T12:04:42;95212.50;;;7.63;100.00
74708;BME280;63360;50.104;8.074;2023-03-14T12:07:23;95232.59;;;7.54;100.00
74708;BME280;63360;50.104;8.074;2023-03-14T12:09:55;95229.91;;;7.51;100.00
74708;BME280;63360;50.104;8.074;2023-03-14T12:12:24;95240.59;;;7.49;100.00
74708;BME280;63360;50.104;8.074;2023-03-14T12:14:54;95254.31;;;7.38;100.00
74708;BME280;63360;50.104;8.074;2023-03-14T12:17:25;95258.16;;;7.28;99.24
74708;BME280;63360;50.104;8.074;2023-03-14T12:20:02;95270.94;;;7.37;99.29
74708;BME280;63360;50.104;8.074;2023-03-14T12:22:42;95259.16;;;7.23;97.11
74708;BME280;63360;50.104;8.074;2023-03-14T12:30:38;95279.44;;;7.65;100.00
74708;BME280;63360;50.104;8.074;2023-03-14T12:33:20;95279.84;;;7.67;99.10
74708;BME280;63360;50.104;8.074;2023-03-14T12:36:15;95293.88;;;7.66;96.09
74708;BME280;63360;50.104;8.074;2023-03-14T12:38:56;95297.53;;;7.65;97.90
74708;BME280;63360;50.104;8.074;2023-03-14T12:49:40;95352.31;;;7.27;97.94
74708;BME280;63360;50.104;8.074;2023-03-14T12:52:17;95354.53;;;7.13;93.73
74708;BME280;63360;50.104;8.074;2023-03-14T12:54:59;95363.22;;;7.08;93.26
74708;BME280;63360;50.104;8.074;2023-03-14T12:57:50;95382.84;;;6.97;94.63
74708;BME280;63360;50.104;8.074;2023-03-14T13:00:30;95395.56;;;7.02;95.11
74708;BME280;63360;50.104;8.074;2023-03-14T13:03:03;95400.75;;;7.02;95.96
74708;BME280;63360;50.104;8.074;2023-03-14T13:05:51;95408.16;;;7.04;95.49
74708;BME280;63360;50.104;8.074;2023-03-14T13:11:01;95423.44;;;7.09;95.32
74708;BME280;63360;50.104;8.074;2023-03-14T13:13:28;95419.69;;;7.18;95.71
74708;BME280;63360;50.104;8.074;2023-03-14T13:15:56;95429.81;;;7.23;94.20
74708;BME280;63360;50.104;8.074;2023-03-14T13:18:35;95433.56;;;7.38;93.06
74708;BME280;63360;50.104;8.074;2023-03-14T13:21:21;95453.91;;;7.52;90.63
74708;BME280;63360;50.104;8.074;2023-03-14T13:24:23;95461.56;;;7.60;89.92
74708;BME280;63360;50.104;8.074;2023-03-14T13:26:52;95464.22;;;7.76;90.79
74708;BME280;63360;50.104;8.074;2023-03-14T13:29:24;95478.56;;;7.61;89.28
74708;BME280;63360;50.104;8.074;2023-03-14T13:31:56;95474.72;;;7.55;87.28
74708;BME280;63360;50.104;8.074;2023-03-14T13:34:33;95503.28;;;7.34;88.03
74708;BME280;63360;50.104;8.074;2023-03-14T13:37:00;95520.41;;;7.15;92.76
74708;BME280;63360;50.104;8.074;2023-03-14T13:39:27;95507.16;;;7.04;92.53
74708;BME280;63360;50.104;8.074;2023-03-14T13:41:58;95525.66;;;6.94;93.84
74708;BME280;63360;50.104;8.074;2023-03-14T13:44:31;95528.88;;;6.91;94.23
74708;BME280;63360;50.104;8.074;2023-03-14T13:47:03;95544.63;;;6.98;94.06
74708;BME280;63360;50.104;8.074;2023-03-14T13:49:31;95536.75;;;6.95;92.87
74708;BME280;63360;50.104;8.074;2023-03-14T13:52:02;95549.91;;;7.02;93.71